createdAt,value
2023-05-08T00:00:47.496Z,79.92
2023-05-08T00:03:14.270Z,81.36
2023-05-08T00:05:43.875Z,82.38
2023-05-08T00:08:10.568Z,80.76
2023-05-08T00:10:37.253Z,80.03
2023-05-08T00:13:03.916Z,79.70
2023-05-08T00:15:30.530Z,79.62
2023-05-08T00:17:57.567Z,81.55
2023-05-08T00:20:24.205Z,79.23
2023-05-08T00:22:50.788Z,78.52
2023-05-08T00:25:17.444Z,78.94
2023-05-08T00:27:44.060Z,80.21
2023-05-08T00:30:11.283Z,78.89
2023-05-08T00:32:38.245Z,80.92
2023-05-08T00:35:05.195Z,82.11
2023-05-08T00:37:31.696Z,82.71
2023-05-08T00:39:58.291Z,80.43
2023-05-08T00:42:24.846Z,81.85
2023-05-08T00:44:52.323Z,82.08
2023-05-08T00:47:22.155Z,80.91
2023-05-08T00:49:49.246Z,80.20
2023-05-08T00:52:16.784Z,81.42
2023-05-08T00:54:44.331Z,80.63
2023-05-08T00:57:11.181Z,80.34
2023-05-08T00:59:41.493Z,79.78
2023-05-08T01:02:08.811Z,80.25
2023-05-08T01:04:37.045Z,82.52
2023-05-08T01:07:03.680Z,83.03
2023-05-08T01:09:30.248Z,84.06
2023-05-08T01:11:56.925Z,84.23
2023-05-08T01:14:39.806Z,81.98
2023-05-08T01:17:23.655Z,83.16
2023-05-08T01:20:19.267Z,82.73
2023-05-08T01:23:30.587Z,83.21
2023-05-08T01:26:22.468Z,84.41
2023-05-08T01:29:08.467Z,83.43
2023-05-08T01:31:54.282Z,82.70
2023-05-08T01:34:26.782Z,83.99
2023-05-08T01:37:01.055Z,83.50
2023-05-08T01:39:47.322Z,83.73
2023-05-08T01:42:33.998Z,84.54
2023-05-08T01:45:01.713Z,83.67
2023-05-08T01:47:33.133Z,84.95
2023-05-08T01:50:16.818Z,82.87
2023-05-08T01:52:51.459Z,82.84
2023-05-08T01:55:24.545Z,83.80
2023-05-08T01:57:54.220Z,81.76
2023-05-08T02:00:23.818Z,81.10
2023-05-08T02:02:52.509Z,82.37
2023-05-08T02:05:21.665Z,83.43
2023-05-08T02:07:49.155Z,82.81
2023-05-08T02:10:16.632Z,83.97
2023-05-08T02:12:44.591Z,82.84
2023-05-08T02:15:14.378Z,81.98
2023-05-08T02:17:43.574Z,83.39
2023-05-08T02:20:14.860Z,82.67
2023-05-08T02:22:44.666Z,82.48
2023-05-08T02:25:14.528Z,81.35
2023-05-08T02:27:46.574Z,82.27
2023-05-08T02:30:16.255Z,80.62
2023-05-08T02:32:45.060Z,82.68
2023-05-08T02:35:19.668Z,83.32
2023-05-08T02:37:49.671Z,81.64
2023-05-08T02:40:18.627Z,82.91
2023-05-08T02:42:46.690Z,83.22
2023-05-08T02:45:14.115Z,83.09
2023-05-08T02:47:52.079Z,82.24
2023-05-08T02:50:24.316Z,82.02
2023-05-08T02:53:03.326Z,81.57
2023-05-08T02:55:42.831Z,83.17
2023-05-08T02:58:34.994Z,84.00
2023-05-08T03:01:11.546Z,84.23
2023-05-08T03:03:42.104Z,83.57
2023-05-08T03:06:13.752Z,82.74
2023-05-08T03:08:42.193Z,83.75
2023-05-08T03:11:14.545Z,83.44
2023-05-08T03:13:42.946Z,83.00
2023-05-08T03:16:20.604Z,83.67
2023-05-08T03:19:04.926Z,85.03
2023-05-08T03:21:32.347Z,84.56
2023-05-08T03:24:02.245Z,85.10
2023-05-08T03:26:29.428Z,84.61
2023-05-08T03:28:57.639Z,84.98
2023-05-08T03:31:25.739Z,84.32
2023-05-08T03:33:54.397Z,84.29
2023-05-08T03:36:22.527Z,83.92
2023-05-08T03:38:49.361Z,84.28
2023-05-08T03:41:15.972Z,85.11
2023-05-08T03:43:43.277Z,84.11
2023-05-08T03:46:12.520Z,84.93
2023-05-08T03:48:41.323Z,84.62
2023-05-08T03:51:08.376Z,84.20
2023-05-08T03:53:34.987Z,84.23
2023-05-08T03:56:02.321Z,84.02
2023-05-08T03:58:37.293Z,83.50
2023-05-08T04:01:16.004Z,83.72
2023-05-08T04:03:53.660Z,84.70
2023-05-08T04:06:48.518Z,85.03
2023-05-08T04:09:34.943Z,84.22
2023-05-08T04:12:22.100Z,83.95
2023-05-08T04:14:55.681Z,84.81
2023-05-08T04:17:41.198Z,84.84
2023-05-08T04:20:12.171Z,84.39
2023-05-08T04:22:40.563Z,83.76
2023-05-08T04:25:09.121Z,83.28
2023-05-08T04:27:38.110Z,83.34
2023-05-08T04:30:05.512Z,83.03
2023-05-08T04:32:33.687Z,82.75
2023-05-08T04:35:00.851Z,84.36
2023-05-08T04:37:31.823Z,83.91
2023-05-08T04:39:59.223Z,83.80
2023-05-08T04:42:26.405Z,83.56
2023-05-08T04:44:54.038Z,83.26
2023-05-08T04:47:21.319Z,83.10
2023-05-08T04:49:47.935Z,83.84
2023-05-08T04:52:14.553Z,84.55
2023-05-08T04:54:41.307Z,84.82
2023-05-08T04:57:08.303Z,85.43
2023-05-08T04:59:34.874Z,84.53
2023-05-08T05:02:06.132Z,84.82
2023-05-08T05:04:32.758Z,84.24
2023-05-08T05:06:59.417Z,85.28
2023-05-08T05:09:26.033Z,85.61
2023-05-08T05:11:52.567Z,86.06
2023-05-08T05:14:19.220Z,85.75
2023-05-08T05:16:45.967Z,84.39
2023-05-08T05:19:12.918Z,84.96
2023-05-08T05:21:39.650Z,85.17
2023-05-08T05:24:06.619Z,85.28
2023-05-08T05:26:34.785Z,84.42
2023-05-08T05:29:02.332Z,84.24
2023-05-08T05:31:29.935Z,84.73
2023-05-08T05:33:56.624Z,84.79
2023-05-08T05:36:25.206Z,85.08
2023-05-08T05:38:51.744Z,85.67
2023-05-08T05:41:18.296Z,85.15
2023-05-08T05:43:44.857Z,84.96
2023-05-08T05:46:13.492Z,85.55
2023-05-08T05:48:40.227Z,85.39
2023-05-08T05:51:06.888Z,86.06
2023-05-08T05:53:33.453Z,86.73
2023-05-08T05:56:00.132Z,86.55
2023-05-08T05:58:28.460Z,86.84
2023-05-08T06:00:55.115Z,87.24
2023-05-08T06:03:21.685Z,85.87
2023-05-08T06:05:48.337Z,86.17
2023-05-08T06:08:17.871Z,86.82
2023-05-08T06:10:44.502Z,85.13
2023-05-08T06:13:11.368Z,85.60
2023-05-08T06:15:37.921Z,86.08
2023-05-08T06:18:04.945Z,84.74
2023-05-08T06:20:31.464Z,85.39
2023-05-08T06:22:58.011Z,84.94
2023-05-08T06:25:24.744Z,83.41
2023-05-08T06:27:51.552Z,84.22
2023-05-08T06:30:18.115Z,82.56
2023-05-08T06:32:44.720Z,83.32
2023-05-08T06:35:12.389Z,83.71
2023-05-08T06:37:41.985Z,84.08
2023-05-08T06:40:12.024Z,82.03
2023-05-08T06:42:44.113Z,82.80
2023-05-08T06:45:11.317Z,81.63
2023-05-08T06:47:38.605Z,83.30
2023-05-08T06:50:05.803Z,81.47
2023-05-08T06:52:32.803Z,82.14
2023-05-08T06:54:59.304Z,80.81
2023-05-08T06:57:27.216Z,80.06
2023-05-08T06:59:54.246Z,80.54
2023-05-08T07:02:20.787Z,80.47
2023-05-08T07:04:48.193Z,79.67
2023-05-08T07:07:15.327Z,79.37
2023-05-08T07:09:42.038Z,80.82
2023-05-08T07:12:08.978Z,79.61
2023-05-08T07:14:35.510Z,79.96
2023-05-08T07:17:06.905Z,80.10
2023-05-08T07:19:36.440Z,80.79
2023-05-08T07:22:03.278Z,78.78
2023-05-08T07:24:29.931Z,77.08
2023-05-08T07:26:56.623Z,79.24
2023-05-08T07:29:23.100Z,80.79
2023-05-08T07:31:50.910Z,80.14
2023-05-08T07:34:17.880Z,81.24
2023-05-08T07:36:45.151Z,80.75
2023-05-08T07:39:11.619Z,81.96
2023-05-08T07:41:40.986Z,80.56
2023-05-08T07:44:08.063Z,82.55
2023-05-08T07:46:34.929Z,81.91
2023-05-08T07:49:01.727Z,80.92
2023-05-08T07:51:28.931Z,80.52
2023-05-08T07:53:55.724Z,80.69
2023-05-08T07:56:25.177Z,80.48
2023-05-08T07:58:51.780Z,80.18
2023-05-08T08:01:18.496Z,80.19
2023-05-08T08:03:46.181Z,79.00
2023-05-08T08:06:13.332Z,79.99
2023-05-08T08:08:41.307Z,78.24
2023-05-08T08:11:07.925Z,80.24
2023-05-08T08:13:34.624Z,79.14
2023-05-08T08:16:04.988Z,78.77
2023-05-08T08:18:35.724Z,79.65
2023-05-08T08:21:06.324Z,78.27
2023-05-08T08:23:33.241Z,79.56
2023-05-08T08:25:59.880Z,80.00
2023-05-08T08:28:26.645Z,79.28
2023-05-08T08:30:53.328Z,78.00
2023-05-08T08:33:19.918Z,80.02
2023-05-08T08:35:46.591Z,78.84
2023-05-08T08:38:13.358Z,79.49
2023-05-08T08:40:46.580Z,78.68
2023-05-08T08:43:13.341Z,76.77
2023-05-08T08:45:39.971Z,77.26
2023-05-08T08:48:11.763Z,76.44
2023-05-08T08:50:43.058Z,76.10
2023-05-08T08:53:24.607Z,74.61
2023-05-08T08:55:55.743Z,76.13
2023-05-08T08:58:31.403Z,74.36
2023-05-08T09:01:00.563Z,75.50
2023-05-08T09:03:27.892Z,73.97
2023-05-08T09:05:55.296Z,75.25
2023-05-08T09:08:21.911Z,74.62
2023-05-08T09:10:48.569Z,75.13
2023-05-08T09:13:16.620Z,74.58
2023-05-08T09:15:43.945Z,73.33
2023-05-08T09:18:10.464Z,72.32
2023-05-08T09:20:37.327Z,72.80
2023-05-08T09:23:04.205Z,72.21
2023-05-08T09:25:44.266Z,71.53
2023-05-08T09:28:24.319Z,73.46
2023-05-08T09:30:51.837Z,69.82
2023-05-08T09:33:18.441Z,70.00
2023-05-08T09:35:44.887Z,68.78
2023-05-08T09:38:38.685Z,72.59
2023-05-08T09:41:12.137Z,72.78
2023-05-08T09:43:39.090Z,70.25
2023-05-08T09:46:26.672Z,70.51
2023-05-08T09:48:55.353Z,68.99
2023-05-08T09:51:23.414Z,70.20
2023-05-08T09:53:57.366Z,69.27
2023-05-08T09:56:53.393Z,69.49
2023-05-08T09:59:24.165Z,69.61
2023-05-08T10:01:50.964Z,68.67
2023-05-08T10:04:17.547Z,68.05
2023-05-08T10:06:44.344Z,67.47
2023-05-08T10:09:13.315Z,68.24
2023-05-08T10:11:41.526Z,66.97
2023-05-08T10:14:08.757Z,66.88
2023-05-08T10:16:49.089Z,67.20
2023-05-08T10:19:18.191Z,66.92
2023-05-08T10:21:53.182Z,67.01
2023-05-08T10:24:25.765Z,68.11
2023-05-08T10:27:06.977Z,67.29
2023-05-08T10:29:43.015Z,69.82
2023-05-08T10:32:10.547Z,69.59
2023-05-08T10:34:40.754Z,69.08
2023-05-08T10:37:11.462Z,67.10
2023-05-08T10:39:38.746Z,67.85
2023-05-08T10:42:05.251Z,67.87
2023-05-08T10:44:32.537Z,68.38
2023-05-08T10:47:11.828Z,67.67
2023-05-08T10:49:38.233Z,65.59
2023-05-08T10:52:24.557Z,66.54
2023-05-08T10:54:53.906Z,65.46
2023-05-08T10:57:21.527Z,62.17
2023-05-08T10:59:48.036Z,63.48
2023-05-08T11:02:15.530Z,64.92
2023-05-08T11:04:43.923Z,62.62
2023-05-08T11:07:11.513Z,63.54
2023-05-08T11:09:41.033Z,63.96
2023-05-08T11:12:16.507Z,63.86
2023-05-08T11:14:45.836Z,63.34
2023-05-08T11:17:12.370Z,62.61
2023-05-08T11:19:38.988Z,64.17
2023-05-08T11:22:24.205Z,64.35
2023-05-08T11:24:54.881Z,62.88
2023-05-08T11:27:50.814Z,63.33
2023-05-08T11:30:25.590Z,64.16
2023-05-08T11:33:04.605Z,64.97
2023-05-08T11:36:01.558Z,62.66
2023-05-08T11:38:40.210Z,62.88
2023-05-08T11:41:10.381Z,62.71
2023-05-08T11:44:09.665Z,62.09
2023-05-08T11:46:48.348Z,61.30
2023-05-08T11:49:22.687Z,61.56
2023-05-08T11:51:57.848Z,61.55
2023-05-08T11:54:25.798Z,62.91
2023-05-08T11:56:57.008Z,60.48
2023-05-08T11:59:23.413Z,62.66
2023-05-08T12:04:21.228Z,63.37
2023-05-08T12:06:48.268Z,64.22
2023-05-08T12:09:17.432Z,63.42
2023-05-08T12:11:45.379Z,64.02
2023-05-08T12:14:13.860Z,60.92
2023-05-08T12:16:40.891Z,61.15
2023-05-08T12:19:12.357Z,60.69
2023-05-08T12:21:39.749Z,61.29
2023-05-08T12:24:18.749Z,61.80
2023-05-08T12:26:46.400Z,58.11
2023-05-08T12:29:12.851Z,57.10
2023-05-08T12:31:42.336Z,58.58
2023-05-08T12:34:10.027Z,57.42
2023-05-08T12:36:37.162Z,59.39
2023-05-08T12:39:15.198Z,59.46
2023-05-08T12:41:46.265Z,59.50
2023-05-08T12:44:38.982Z,59.32
2023-05-08T12:47:06.545Z,56.20
2023-05-08T12:49:33.019Z,54.89
2023-05-08T12:52:04.504Z,55.94
2023-05-08T12:54:33.781Z,57.71
2023-05-08T12:57:00.675Z,55.15
2023-05-08T12:59:33.576Z,54.23
2023-05-08T13:02:00.213Z,52.97
2023-05-08T13:04:27.204Z,54.82
2023-05-08T13:06:55.762Z,53.42
2023-05-08T13:09:23.370Z,56.22
2023-05-08T13:11:50.015Z,56.72
2023-05-08T13:14:16.664Z,54.77
2023-05-08T13:16:47.843Z,56.25
2023-05-08T13:19:16.008Z,55.44
2023-05-08T13:21:44.695Z,56.46
2023-05-08T13:24:11.081Z,55.91
2023-05-08T13:26:37.537Z,56.79
2023-05-08T13:29:03.919Z,56.41
2023-05-08T13:31:30.698Z,55.63
2023-05-08T13:33:57.395Z,55.50
2023-05-08T13:36:24.470Z,56.25
2023-05-08T13:38:57.087Z,57.56
2023-05-08T13:41:23.473Z,55.55
2023-05-08T13:43:49.818Z,57.18
2023-05-08T13:46:16.370Z,56.72
2023-05-08T13:48:43.044Z,57.29
2023-05-08T13:51:09.443Z,57.28
2023-05-08T13:53:36.078Z,58.50
2023-05-08T13:56:02.670Z,55.96
2023-05-08T13:58:29.370Z,55.91
2023-05-08T14:00:55.741Z,56.63
2023-05-08T14:03:22.398Z,56.73
2023-05-08T14:05:48.875Z,56.56
2023-05-08T14:08:15.323Z,55.99
2023-05-08T14:10:41.835Z,54.26
2023-05-08T14:13:08.312Z,54.06
2023-05-08T14:15:37.272Z,56.62
2023-05-08T14:18:04.646Z,56.22
2023-05-08T14:20:31.070Z,56.91
2023-05-08T14:23:00.051Z,57.14
2023-05-08T14:25:26.906Z,57.03
2023-05-08T14:27:53.508Z,58.79
2023-05-08T14:30:19.990Z,57.52
2023-05-08T14:32:46.643Z,59.77
2023-05-08T14:35:14.418Z,59.52
2023-05-08T14:37:41.152Z,57.93
2023-05-08T14:40:08.298Z,56.48
2023-05-08T14:42:34.832Z,58.20
2023-05-08T14:45:01.414Z,56.82
2023-05-08T14:47:28.076Z,58.70
2023-05-08T14:49:54.672Z,55.48
2023-05-08T14:52:21.139Z,55.85
2023-05-08T14:57:39.551Z,57.05
2023-05-08T15:00:06.768Z,55.52
2023-05-08T15:02:33.368Z,54.38
2023-05-08T15:04:59.833Z,54.44
2023-05-08T15:07:26.244Z,58.14
2023-05-08T15:09:53.145Z,57.55
2023-05-08T15:12:19.639Z,56.72
2023-05-08T15:14:46.463Z,58.33
2023-05-08T15:17:12.922Z,58.12
2023-05-08T15:19:42.453Z,57.57
2023-05-08T15:22:08.989Z,58.87
2023-05-08T15:24:35.423Z,59.42
2023-05-08T15:27:01.944Z,59.42
2023-05-08T15:29:28.407Z,58.50
2023-05-08T15:31:54.998Z,58.57
2023-05-08T15:34:23.290Z,59.01
2023-05-08T15:36:49.988Z,58.87
2023-05-08T15:39:16.470Z,56.93
2023-05-08T15:41:42.862Z,55.89
2023-05-08T15:44:09.289Z,59.04
2023-05-08T15:46:36.173Z,58.33
2023-05-08T15:49:03.153Z,57.57
2023-05-08T15:51:30.015Z,57.06
2023-05-08T15:53:56.585Z,58.77
2023-05-08T15:56:24.604Z,57.56
2023-05-08T15:58:51.855Z,58.94
2023-05-08T16:01:19.390Z,58.70
2023-05-08T16:03:46.681Z,60.50
2023-05-08T16:06:13.611Z,59.27
2023-05-08T16:08:40.051Z,59.01
2023-05-08T16:11:06.509Z,59.71
2023-05-08T16:13:32.885Z,60.15
2023-05-08T16:16:06.358Z,60.40
2023-05-08T16:18:32.855Z,58.74
2023-05-08T16:20:59.234Z,61.38
2023-05-08T16:23:25.825Z,62.31
2023-05-08T16:25:52.745Z,61.75
2023-05-08T16:28:19.117Z,59.32
2023-05-08T16:30:45.825Z,60.67
2023-05-08T16:33:12.626Z,62.15
2023-05-08T16:35:39.985Z,62.88
2023-05-08T16:38:06.480Z,61.54
2023-05-08T16:40:32.996Z,63.33
2023-05-08T16:42:59.423Z,62.59
2023-05-08T16:45:25.943Z,63.69
2023-05-08T16:47:52.436Z,61.37
2023-05-08T16:50:19.014Z,62.36
2023-05-08T16:52:45.744Z,63.88
2023-05-08T16:55:12.467Z,60.77
2023-05-08T16:57:39.409Z,61.05
2023-05-08T17:00:06.702Z,61.90
2023-05-08T17:02:33.271Z,61.91
2023-05-08T17:04:59.789Z,62.27
2023-05-08T17:07:26.357Z,61.77
2023-05-08T17:09:57.275Z,60.47
2023-05-08T17:12:24.605Z,61.61
2023-05-08T17:14:51.122Z,60.59
2023-05-08T17:17:17.604Z,60.55
2023-05-08T17:19:44.091Z,62.31
2023-05-08T17:22:11.402Z,61.81
2023-05-08T17:24:38.008Z,63.20
2023-05-08T17:27:08.051Z,63.38
2023-05-08T17:29:34.911Z,63.65
2023-05-08T17:32:01.581Z,64.20
2023-05-08T17:34:28.300Z,63.73
2023-05-08T17:36:55.359Z,64.16
2023-05-08T17:39:22.337Z,64.50
2023-05-08T17:41:50.071Z,65.25
2023-05-08T17:44:17.266Z,65.30
2023-05-08T17:46:45.255Z,65.76
2023-05-08T17:49:11.736Z,65.16
2023-05-08T17:51:39.425Z,65.21
2023-05-08T17:54:06.781Z,66.03
2023-05-08T17:56:33.392Z,65.35
2023-05-08T17:58:59.797Z,65.85
2023-05-08T18:01:26.429Z,66.55
2023-05-08T18:03:53.694Z,67.07
2023-05-08T18:06:20.698Z,67.23
2023-05-08T18:08:47.604Z,67.81
2023-05-08T18:11:24.710Z,68.34
2023-05-08T18:13:53.054Z,67.96
2023-05-08T18:16:23.624Z,67.76
2023-05-08T18:18:50.460Z,68.85
2023-05-08T18:21:16.861Z,68.45
2023-05-08T18:23:43.881Z,68.00
2023-05-08T18:26:17.197Z,69.04
2023-05-08T18:28:44.487Z,69.41
2023-05-08T18:31:11.967Z,68.81
2023-05-08T18:33:38.824Z,69.12
2023-05-08T18:36:06.931Z,69.83
2023-05-08T18:38:34.216Z,69.40
2023-05-08T18:41:05.077Z,69.49
2023-05-08T18:43:31.691Z,69.89
2023-05-08T18:46:00.361Z,69.55
2023-05-08T18:48:27.257Z,70.72
2023-05-08T18:50:55.851Z,70.97
2023-05-08T18:53:22.192Z,70.21
2023-05-08T18:55:48.521Z,70.12
2023-05-08T18:58:14.940Z,69.93
2023-05-08T19:00:41.414Z,70.54
2023-05-08T19:03:07.966Z,70.59
2023-05-08T19:05:34.378Z,71.14
2023-05-08T19:08:00.790Z,71.47
2023-05-08T19:10:27.292Z,71.30
2023-05-08T19:12:53.742Z,72.18
2023-05-08T19:15:20.226Z,71.11
2023-05-08T19:17:46.906Z,72.27
2023-05-08T19:20:13.707Z,71.83
2023-05-08T19:22:40.485Z,72.12
2023-05-08T19:25:07.174Z,71.56
2023-05-08T19:27:34.205Z,71.35
2023-05-08T19:30:00.894Z,72.76
2023-05-08T19:32:28.692Z,71.83
2023-05-08T19:34:57.343Z,72.34
2023-05-08T19:37:24.541Z,71.84
2023-05-08T19:39:51.012Z,73.00
2023-05-08T19:42:17.468Z,72.30
2023-05-08T19:44:43.833Z,73.13
2023-05-08T19:47:10.393Z,72.75
2023-05-08T19:49:36.888Z,72.06
2023-05-08T19:52:03.383Z,72.74
2023-05-08T19:54:30.299Z,73.63
2023-05-08T19:56:57.159Z,74.29
2023-05-08T19:59:23.748Z,73.48
2023-05-08T20:01:50.357Z,73.22
2023-05-08T20:04:19.640Z,73.14
2023-05-08T20:06:46.248Z,73.28
2023-05-08T20:09:15.734Z,74.04
2023-05-08T20:11:44.094Z,73.61
2023-05-08T20:14:10.548Z,73.39
2023-05-08T20:16:37.236Z,74.34
2023-05-08T20:19:05.674Z,73.80
2023-05-08T20:21:33.837Z,74.94
2023-05-08T20:24:00.958Z,77.19
2023-05-08T20:26:29.052Z,74.97
2023-05-08T20:28:56.499Z,75.36
2023-05-08T20:31:23.111Z,75.39
2023-05-08T20:33:49.875Z,75.66
2023-05-08T20:36:16.506Z,74.81
2023-05-08T20:38:42.982Z,76.10
2023-05-08T20:41:09.410Z,77.62
2023-05-08T20:43:35.906Z,76.01
2023-05-08T20:46:02.763Z,75.43
2023-05-08T20:48:29.295Z,77.62
2023-05-08T20:50:55.932Z,77.42
2023-05-08T20:53:22.300Z,76.33
2023-05-08T20:55:48.862Z,77.54
2023-05-08T20:58:15.508Z,77.79
2023-05-08T21:00:41.913Z,78.46
2023-05-08T21:03:08.336Z,78.25
2023-05-08T21:05:34.846Z,78.92
2023-05-08T21:08:03.366Z,78.02
2023-05-08T21:10:31.447Z,78.74
2023-05-08T21:12:58.018Z,78.05
2023-05-08T21:15:24.536Z,78.09
2023-05-08T21:17:51.050Z,76.92
2023-05-08T21:20:18.081Z,78.66
2023-05-08T21:22:46.253Z,79.29
2023-05-08T21:25:14.870Z,79.19
2023-05-08T21:27:44.864Z,78.90
2023-05-08T21:30:16.300Z,79.86
2023-05-08T21:32:44.033Z,76.95
2023-05-08T21:35:11.924Z,76.93
2023-05-08T21:37:42.176Z,76.85
2023-05-08T21:40:09.652Z,76.48
2023-05-08T21:42:36.225Z,78.24
2023-05-08T21:45:02.751Z,78.09
2023-05-08T21:47:29.355Z,78.93
2023-05-08T21:49:55.994Z,77.77
2023-05-08T21:52:23.193Z,77.21
2023-05-08T21:54:50.276Z,78.39
2023-05-08T21:57:16.895Z,76.60
2023-05-08T21:59:43.442Z,77.43
2023-05-08T22:02:10.052Z,78.70
2023-05-08T22:04:36.537Z,79.05
2023-05-08T22:07:03.133Z,77.89
2023-05-08T22:09:29.810Z,77.20
2023-05-08T22:11:56.245Z,78.09
2023-05-08T22:14:22.708Z,78.47
2023-05-08T22:16:49.868Z,76.83
2023-05-08T22:19:16.459Z,76.10
2023-05-08T22:21:43.120Z,77.79
2023-05-08T22:24:09.554Z,76.86
2023-05-08T22:26:36.042Z,77.00
2023-05-08T22:29:02.467Z,77.41
2023-05-08T22:31:28.938Z,78.19
2023-05-08T22:33:57.435Z,79.22
2023-05-08T22:36:24.189Z,79.73
2023-05-08T22:38:50.701Z,78.75
2023-05-08T22:41:17.167Z,79.22
2023-05-08T22:43:43.652Z,80.01
2023-05-08T22:46:10.579Z,78.65
2023-05-08T22:48:37.570Z,78.86
2023-05-08T22:51:04.454Z,79.94
2023-05-08T22:53:30.904Z,79.84
2023-05-08T22:55:57.404Z,79.74
2023-05-08T22:58:25.170Z,78.15
2023-05-08T23:00:51.983Z,80.57
2023-05-08T23:03:18.526Z,80.30
2023-05-08T23:05:45.016Z,80.66
2023-05-08T23:08:11.438Z,80.05
2023-05-08T23:10:37.877Z,78.96
2023-05-08T23:13:04.335Z,79.52
2023-05-08T23:15:30.864Z,79.38
2023-05-08T23:17:57.514Z,79.92
2023-05-08T23:20:24.196Z,81.47
2023-05-08T23:22:50.689Z,80.84
2023-05-08T23:25:17.277Z,81.32
2023-05-08T23:27:43.894Z,80.40
2023-05-08T23:30:13.261Z,79.03
2023-05-08T23:32:40.162Z,79.58
2023-05-08T23:35:07.252Z,80.04
2023-05-08T23:37:33.733Z,79.43
2023-05-08T23:40:00.210Z,78.16
2023-05-08T23:42:27.135Z,80.48
2023-05-08T23:44:53.774Z,80.45
2023-05-08T23:47:22.392Z,79.99
2023-05-08T23:49:48.782Z,79.08
2023-05-08T23:52:15.310Z,80.00
2023-05-08T23:54:41.734Z,79.67
2023-05-08T23:57:09.369Z,78.73
2023-05-08T23:59:35.777Z,81.01
